createdAt,value
2018-09-01T00:00:21.874Z,96.40
2018-09-01T00:02:50.763Z,96.80
2018-09-01T00:05:19.563Z,96.70
2018-09-01T00:07:48.352Z,96.50
2018-09-01T00:10:17.144Z,96.70
2018-09-01T00:12:45.965Z,96.60
2018-09-01T00:15:14.782Z,96.50
2018-09-01T00:17:43.545Z,95.80
2018-09-01T00:20:12.364Z,95.90
2018-09-01T00:22:41.151Z,96.10
2018-09-01T00:25:10.112Z,95.10
2018-09-01T00:27:38.880Z,95.00
2018-09-01T00:30:07.755Z,95.20
2018-09-01T00:32:36.531Z,95.20
2018-09-01T00:35:05.423Z,95.30
2018-09-01T00:37:39.397Z,95.60
2018-09-01T00:40:08.229Z,95.60
2018-09-01T00:42:37.008Z,95.20
2018-09-01T00:45:05.829Z,95.30
2018-09-01T00:47:34.644Z,95.80
2018-09-01T00:50:03.447Z,94.90
2018-09-01T00:52:32.212Z,95.10
2018-09-01T00:55:00.992Z,94.80
2018-09-01T00:57:29.776Z,94.70
2018-09-01T00:59:58.655Z,94.80
2018-09-01T01:02:27.474Z,94.90
2018-09-01T01:04:56.267Z,94.60
2018-09-01T01:07:25.077Z,94.60
2018-09-01T01:09:54.239Z,94.60
2018-09-01T01:12:23.229Z,94.70
2018-09-01T01:14:52.148Z,94.40
2018-09-01T01:17:20.939Z,94.60
2018-09-01T01:19:49.735Z,94.40
2018-09-01T01:22:18.548Z,94.60
2018-09-01T01:24:47.352Z,94.30
2018-09-01T01:27:16.463Z,93.70
2018-09-01T01:29:45.557Z,93.60
2018-09-01T01:32:14.373Z,93.60
2018-09-01T01:34:43.169Z,93.80
2018-09-01T01:37:11.973Z,94.00
2018-09-01T01:39:40.740Z,94.20
2018-09-01T01:42:09.685Z,94.40
2018-09-01T01:44:38.497Z,94.30
2018-09-01T01:47:07.361Z,93.90
2018-09-01T01:49:36.169Z,94.00
2018-09-01T01:52:04.973Z,94.30
2018-09-01T01:54:34.072Z,94.60
2018-09-01T01:57:02.863Z,94.10
2018-09-01T01:59:31.670Z,94.20
2018-09-01T02:02:00.445Z,93.90
2018-09-01T02:04:29.728Z,94.10
2018-09-01T02:06:58.799Z,94.20
2018-09-01T02:09:27.589Z,94.20
2018-09-01T02:11:56.388Z,93.60
2018-09-01T02:14:25.170Z,93.70
2018-09-01T02:16:54.128Z,94.20
2018-09-01T02:19:22.905Z,93.90
2018-09-01T02:21:52.108Z,94.40
2018-09-01T02:24:20.903Z,94.20
2018-09-01T02:26:49.694Z,94.40
2018-09-01T02:29:18.523Z,94.70
2018-09-01T02:31:47.331Z,94.80
2018-09-01T02:34:16.173Z,94.80
2018-09-01T02:36:45.227Z,94.80
2018-09-01T02:39:14.032Z,95.00
2018-09-01T02:41:43.212Z,94.90
2018-09-01T02:44:12.015Z,95.00
2018-09-01T02:46:40.928Z,95.10
2018-09-01T02:49:10.030Z,95.50
2018-09-01T02:51:39.038Z,95.40
2018-09-01T02:54:08.052Z,95.30
2018-09-01T02:56:37.201Z,94.40
2018-09-01T02:59:06.153Z,94.40
2018-09-01T03:01:35.969Z,94.80
2018-09-01T03:04:05.816Z,94.50
2018-09-01T03:06:45.792Z,94.40
2018-09-01T03:09:15.065Z,94.50
2018-09-01T03:11:43.893Z,94.70
2018-09-01T03:14:12.682Z,94.30
2018-09-01T03:16:41.498Z,94.40
2018-09-01T03:19:10.323Z,94.20
2018-09-01T03:21:39.491Z,94.20
2018-09-01T03:24:08.532Z,94.10
2018-09-01T03:26:37.512Z,94.30
2018-09-01T03:29:06.610Z,95.00
2018-09-01T03:31:35.458Z,95.00
2018-09-01T03:34:04.797Z,94.20
2018-09-01T03:36:33.894Z,94.70
2018-09-01T03:39:02.840Z,94.80
2018-09-01T03:41:31.608Z,95.10
2018-09-01T03:44:00.872Z,95.30
2018-09-01T03:46:29.863Z,95.20
2018-09-01T03:49:00.024Z,95.00
2018-09-01T03:51:29.640Z,95.10
2018-09-01T03:53:58.655Z,95.10
2018-09-01T03:56:27.792Z,94.70
2018-09-01T03:58:56.940Z,95.00
2018-09-01T04:01:26.071Z,94.60
2018-09-01T04:03:55.058Z,94.60
2018-09-01T04:06:23.856Z,94.60
2018-09-01T04:08:52.898Z,94.90
2018-09-01T04:11:21.725Z,95.60
2018-09-01T04:13:50.739Z,94.90
2018-09-01T04:16:19.517Z,95.00
2018-09-01T04:18:48.302Z,95.40
2018-09-01T04:21:17.514Z,96.00
2018-09-01T04:23:46.590Z,95.80
2018-09-01T04:26:15.367Z,96.10
2018-09-01T04:28:44.463Z,95.80
2018-09-01T04:31:13.666Z,95.70
2018-09-01T04:33:42.903Z,95.90
2018-09-01T04:36:11.968Z,95.50
2018-09-01T04:38:40.777Z,95.20
2018-09-01T04:41:09.636Z,95.00
2018-09-01T04:43:38.856Z,94.90
2018-09-01T04:46:07.967Z,94.50
2018-09-01T04:48:36.810Z,94.80
2018-09-01T04:51:05.932Z,95.40
2018-09-01T04:53:35.005Z,95.20
2018-09-01T04:56:04.103Z,95.40
2018-09-01T04:58:33.211Z,95.20
2018-09-01T05:01:02.381Z,95.40
2018-09-01T05:03:31.119Z,95.10
2018-09-01T05:06:00.298Z,95.30
2018-09-01T05:08:29.079Z,94.80
2018-09-01T05:10:58.093Z,94.50
2018-09-01T05:13:27.142Z,94.70
2018-09-01T05:15:56.003Z,94.40
2018-09-01T05:18:24.834Z,95.00
2018-09-01T05:20:54.750Z,95.40
2018-09-01T05:23:23.768Z,96.20
2018-09-01T05:25:52.736Z,96.00
2018-09-01T05:28:21.557Z,95.90
2018-09-01T05:30:50.570Z,96.20
2018-09-01T05:33:19.778Z,96.20
2018-09-01T05:35:49.036Z,96.30
2018-09-01T05:38:17.849Z,96.30
2018-09-01T05:40:46.656Z,96.00
2018-09-01T05:43:15.780Z,96.10
2018-09-01T05:45:44.903Z,96.50
2018-09-01T05:48:13.739Z,96.50
2018-09-01T05:50:43.024Z,96.70
2018-09-01T05:53:12.224Z,96.40
2018-09-01T05:55:41.474Z,96.70
2018-09-01T05:58:10.326Z,96.70
2018-09-01T06:00:43.286Z,96.40
2018-09-01T06:03:12.322Z,96.50
2018-09-01T06:05:41.424Z,96.30
2018-09-01T06:08:10.422Z,96.30
2018-09-01T06:10:39.237Z,96.20
2018-09-01T06:13:08.100Z,95.80
2018-09-01T06:15:37.247Z,96.70
2018-09-01T06:18:06.443Z,96.20
2018-09-01T06:20:35.247Z,96.00
2018-09-01T06:23:04.074Z,96.40
2018-09-01T06:25:32.962Z,96.00
2018-09-01T06:28:09.384Z,96.10
2018-09-01T06:30:40.730Z,96.20
2018-09-01T06:33:09.950Z,96.30
2018-09-01T06:35:38.972Z,95.90
2018-09-01T06:38:07.808Z,95.80
2018-09-01T06:40:36.627Z,96.30
2018-09-01T06:43:05.940Z,96.30
2018-09-01T06:45:34.689Z,96.10
2018-09-01T06:48:03.485Z,96.20
2018-09-01T06:50:32.593Z,96.20
2018-09-01T06:53:01.989Z,96.40
2018-09-01T06:55:30.907Z,96.50
2018-09-01T06:57:59.714Z,96.90
2018-09-01T07:00:28.535Z,97.50
2018-09-01T07:02:57.509Z,97.70
2018-09-01T07:05:26.589Z,97.90
2018-09-01T07:07:55.656Z,97.50
2018-09-01T07:10:24.862Z,97.90
2018-09-01T07:12:53.837Z,98.00
2018-09-01T07:15:22.820Z,97.70
2018-09-01T07:17:51.930Z,97.50
2018-09-01T07:20:21.144Z,97.40
2018-09-01T07:22:50.334Z,98.00
2018-09-01T07:25:19.421Z,97.80
2018-09-01T07:27:48.421Z,97.00
2018-09-01T07:30:17.342Z,97.70
2018-09-01T07:32:46.415Z,96.70
2018-09-01T07:35:15.499Z,97.20
2018-09-01T07:37:44.571Z,97.50
2018-09-01T07:40:13.800Z,97.00
2018-09-01T07:42:42.864Z,97.20
2018-09-01T07:45:12.185Z,97.40
2018-09-01T07:47:41.161Z,97.60
2018-09-01T07:50:10.305Z,97.50
2018-09-01T07:52:39.581Z,97.10
2018-09-01T07:55:08.882Z,96.80
2018-09-01T07:57:37.717Z,96.40
2018-09-01T08:00:06.846Z,95.90
2018-09-01T08:02:35.845Z,95.90
2018-09-01T08:05:05.034Z,95.70
2018-09-01T08:07:34.166Z,95.20
2018-09-01T08:10:03.257Z,95.50
2018-09-01T08:12:32.320Z,96.00
2018-09-01T08:15:01.518Z,96.20
2018-09-01T08:17:30.726Z,96.10
2018-09-01T08:19:59.803Z,96.50
2018-09-01T08:22:28.935Z,96.20
2018-09-01T08:24:58.000Z,95.70
2018-09-01T08:27:27.291Z,95.70
2018-09-01T08:29:56.291Z,95.90
2018-09-01T08:32:25.532Z,96.20
2018-09-01T08:34:54.706Z,95.80
2018-09-01T08:37:23.888Z,95.40
2018-09-01T08:39:52.974Z,95.30
2018-09-01T08:42:21.940Z,95.40
2018-09-01T08:44:51.157Z,95.50
2018-09-01T08:47:20.404Z,96.10
2018-09-01T08:49:49.565Z,95.90
2018-09-01T08:52:18.574Z,95.70
2018-09-01T08:54:47.538Z,95.50
2018-09-01T08:57:16.634Z,95.30
2018-09-01T08:59:45.759Z,96.00
2018-09-01T09:02:14.940Z,96.40
2018-09-01T09:04:44.194Z,96.60
2018-09-01T09:07:13.325Z,96.60
2018-09-01T09:09:42.604Z,96.30
2018-09-01T09:12:11.847Z,95.90
2018-09-01T09:14:40.821Z,95.70
2018-09-01T09:17:10.100Z,95.60
2018-09-01T09:19:39.312Z,95.80
2018-09-01T09:22:08.612Z,96.00
2018-09-01T09:24:37.678Z,95.50
2018-09-01T09:27:07.132Z,96.10
2018-09-01T09:29:36.110Z,96.30
2018-09-01T09:32:05.197Z,96.30
2018-09-01T09:34:34.377Z,95.80
2018-09-01T09:37:03.396Z,95.80
2018-09-01T09:39:32.696Z,95.70
2018-09-01T09:42:01.914Z,96.40
2018-09-01T09:44:31.080Z,96.40
2018-09-01T09:47:00.175Z,96.70
2018-09-01T09:49:29.536Z,96.30
2018-09-01T09:51:58.680Z,95.80
2018-09-01T09:54:27.948Z,95.70
2018-09-01T09:56:57.051Z,95.70
2018-09-01T09:59:26.254Z,95.30
2018-09-01T10:01:59.381Z,95.70
2018-09-01T10:04:28.452Z,96.50
2018-09-01T10:06:57.485Z,96.50
2018-09-01T10:09:26.663Z,96.40
2018-09-01T10:11:55.824Z,96.40
2018-09-01T10:14:25.136Z,97.10
2018-09-01T10:16:54.256Z,97.40
2018-09-01T10:19:23.359Z,97.50
2018-09-01T10:21:52.633Z,96.90
2018-09-01T10:24:21.699Z,97.40
2018-09-01T10:26:50.874Z,97.00
2018-09-01T10:29:19.900Z,97.00
2018-09-01T10:31:49.065Z,97.10
2018-09-01T10:34:20.921Z,97.50
2018-09-01T10:36:49.877Z,97.00
2018-09-01T10:39:18.949Z,96.40
2018-09-01T10:41:48.058Z,96.00
2018-09-01T10:44:17.276Z,96.20
2018-09-01T10:46:46.229Z,96.10
2018-09-01T10:49:15.509Z,96.00
2018-09-01T10:51:44.768Z,95.80
2018-09-01T10:54:13.937Z,96.20
2018-09-01T10:56:43.029Z,96.00
2018-09-01T10:59:12.257Z,96.20
2018-09-01T11:01:41.354Z,96.00
2018-09-01T11:04:10.329Z,96.10
2018-09-01T11:06:39.616Z,95.80
2018-09-01T11:09:10.284Z,95.70
2018-09-01T11:11:39.343Z,95.60
2018-09-01T11:14:08.601Z,95.20
2018-09-01T11:16:37.717Z,95.50
2018-09-01T11:19:06.825Z,95.30
2018-09-01T11:21:35.954Z,95.10
2018-09-01T11:24:05.017Z,95.00
2018-09-01T11:26:34.263Z,94.90
2018-09-01T11:29:03.435Z,95.00
2018-09-01T11:31:32.608Z,94.80
2018-09-01T11:34:01.877Z,94.20
2018-09-01T11:36:30.930Z,93.90
2018-09-01T11:39:00.163Z,94.30
2018-09-01T11:41:29.209Z,94.10
2018-09-01T11:43:58.170Z,94.40
2018-09-01T11:46:27.399Z,94.40
2018-09-01T11:48:56.491Z,94.00
2018-09-01T11:51:25.706Z,94.30
2018-09-01T11:53:54.881Z,94.40
2018-09-01T11:56:24.184Z,94.10
2018-09-01T11:58:53.405Z,93.60
2018-09-01T12:01:22.655Z,93.40
2018-09-01T12:03:51.805Z,93.40
2018-09-01T12:06:21.069Z,93.30
2018-09-01T12:08:50.164Z,93.40
2018-09-01T12:11:19.249Z,93.50
2018-09-01T12:13:48.508Z,93.30
2018-09-01T12:16:17.722Z,93.60
2018-09-01T12:18:46.844Z,94.10
2018-09-01T12:21:15.791Z,94.40
2018-09-01T12:23:44.927Z,94.30
2018-09-01T12:26:14.015Z,94.30
2018-09-01T12:28:43.129Z,94.00
2018-09-01T12:31:12.201Z,94.50
2018-09-01T12:33:41.311Z,93.90
2018-09-01T12:36:10.569Z,94.40
2018-09-01T12:38:39.612Z,94.50
2018-09-01T12:41:08.719Z,93.80
2018-09-01T12:43:37.804Z,93.80
2018-09-01T12:46:06.815Z,93.70
2018-09-01T12:48:35.885Z,93.90
2018-09-01T12:51:04.982Z,94.10
2018-09-01T12:53:34.083Z,94.00
2018-09-01T12:56:03.283Z,93.80
2018-09-01T12:58:32.489Z,94.10
2018-09-01T13:01:01.620Z,94.30
2018-09-01T13:03:30.767Z,94.50
2018-09-01T13:05:59.975Z,94.00
2018-09-01T13:08:28.847Z,94.20
2018-09-01T13:10:57.952Z,94.40
2018-09-01T13:13:26.961Z,94.30
2018-09-01T13:15:56.042Z,94.20
2018-09-01T13:18:25.058Z,93.60
2018-09-01T13:20:54.124Z,93.40
2018-09-01T13:23:23.196Z,93.90
2018-09-01T13:25:52.304Z,94.10
2018-09-01T13:28:21.503Z,94.10
2018-09-01T13:30:50.715Z,94.20
2018-09-01T13:33:19.792Z,94.40
2018-09-01T13:35:48.880Z,93.70
2018-09-01T13:38:18.139Z,94.20
2018-09-01T13:40:47.559Z,94.20
2018-09-01T13:43:16.704Z,94.20
2018-09-01T13:45:45.891Z,94.20
2018-09-01T13:48:15.172Z,94.10
2018-09-01T13:50:44.384Z,94.00
2018-09-01T13:53:13.470Z,93.50
2018-09-01T13:55:42.442Z,93.50
2018-09-01T13:58:11.575Z,93.80
2018-09-01T14:00:40.658Z,93.80
2018-09-01T14:03:09.741Z,93.70
2018-09-01T14:05:38.843Z,93.80
2018-09-01T14:08:07.943Z,93.60
2018-09-01T14:10:37.152Z,93.80
2018-09-01T14:13:06.332Z,93.70
2018-09-01T14:15:35.454Z,93.30
2018-09-01T14:18:04.634Z,93.80
2018-09-01T14:20:33.841Z,93.50
2018-09-01T14:23:02.933Z,93.90
2018-09-01T14:25:31.908Z,94.20
2018-09-01T14:28:01.081Z,94.40
2018-09-01T14:30:30.314Z,93.70
2018-09-01T14:32:59.599Z,93.70
2018-09-01T14:35:28.776Z,94.30
2018-09-01T14:37:57.794Z,94.20
2018-09-01T14:40:26.895Z,94.80
2018-09-01T14:42:55.754Z,94.40
2018-09-01T14:45:24.902Z,94.10
2018-09-01T14:47:53.976Z,94.00
2018-09-01T14:50:23.119Z,94.40
2018-09-01T14:52:52.237Z,94.30
2018-09-01T14:55:21.329Z,94.40
2018-09-01T14:57:50.381Z,94.60
2018-09-01T15:00:19.650Z,94.10
2018-09-01T15:02:48.748Z,93.90
2018-09-01T15:05:17.828Z,93.50
2018-09-01T15:07:46.920Z,93.50
2018-09-01T15:10:16.028Z,93.40
2018-09-01T15:12:45.139Z,93.50
2018-09-01T15:15:14.239Z,93.30
2018-09-01T15:17:43.326Z,93.10
2018-09-01T15:20:12.709Z,93.70
2018-09-01T15:22:41.844Z,93.10
2018-09-01T15:25:11.128Z,93.10
2018-09-01T15:27:40.174Z,93.50
2018-09-01T15:30:09.410Z,93.10
2018-09-01T15:32:38.675Z,93.10
2018-09-01T15:35:07.817Z,93.10
2018-09-01T15:37:36.907Z,93.20
2018-09-01T15:40:06.182Z,93.20
2018-09-01T15:42:35.194Z,92.70
2018-09-01T15:45:04.470Z,92.50
2018-09-01T15:47:33.679Z,92.60
2018-09-01T15:50:02.799Z,92.50
2018-09-01T15:52:31.873Z,92.60
2018-09-01T15:55:00.949Z,92.70
2018-09-01T15:57:29.973Z,92.40
2018-09-01T15:59:59.189Z,92.40
2018-09-01T16:02:28.222Z,92.50
2018-09-01T16:04:57.336Z,93.40
2018-09-01T16:07:26.549Z,93.40
2018-09-01T16:09:55.631Z,93.10
2018-09-01T16:12:24.643Z,93.60
2018-09-01T16:14:53.774Z,93.40
2018-09-01T16:17:22.963Z,94.40
2018-09-01T16:19:52.141Z,93.70
2018-09-01T16:22:21.115Z,93.60
2018-09-01T16:24:50.124Z,93.70
2018-09-01T16:27:19.234Z,93.90
2018-09-01T16:29:48.391Z,94.00
2018-09-01T16:32:17.364Z,94.30
2018-09-01T16:34:46.627Z,94.40
2018-09-01T16:37:15.808Z,94.30
2018-09-01T16:39:44.942Z,94.40
2018-09-01T16:42:13.957Z,93.90
2018-09-01T16:44:43.076Z,94.70
2018-09-01T16:47:12.007Z,94.70
2018-09-01T16:49:41.165Z,95.10
2018-09-01T16:52:10.266Z,94.50
2018-09-01T16:54:39.438Z,94.30
2018-09-01T16:57:08.412Z,95.00
2018-09-01T16:59:37.429Z,94.50
2018-09-01T17:02:06.850Z,96.40
2018-09-01T17:04:35.917Z,95.30
2018-09-01T17:07:04.881Z,96.10
2018-09-01T17:09:34.113Z,95.20
2018-09-01T17:12:03.288Z,95.60
2018-09-01T17:14:32.220Z,94.80
2018-09-01T17:17:01.291Z,94.40
2018-09-01T17:19:30.619Z,94.60
2018-09-01T17:21:59.713Z,94.20
2018-09-01T17:24:28.799Z,93.50
2018-09-01T17:26:57.851Z,93.70
2018-09-01T17:29:27.047Z,94.10
2018-09-01T17:31:56.079Z,93.90
2018-09-01T17:34:25.151Z,93.70
2018-09-01T17:36:54.244Z,93.90
2018-09-01T17:39:23.368Z,94.00
2018-09-01T17:41:52.442Z,94.10
2018-09-01T17:44:21.656Z,94.10
2018-09-01T17:46:50.753Z,93.90
2018-09-01T17:49:19.962Z,93.70
2018-09-01T17:51:49.189Z,93.50
2018-09-01T17:54:18.331Z,93.60
2018-09-01T17:56:47.394Z,93.50
2018-09-01T17:59:16.415Z,93.40
2018-09-01T18:01:45.591Z,93.30
2018-09-01T18:04:14.725Z,93.50
2018-09-01T18:06:43.624Z,93.30
2018-09-01T18:09:12.732Z,93.40
2018-09-01T18:11:41.895Z,93.70
2018-09-01T18:14:11.101Z,93.60
2018-09-01T18:16:40.240Z,93.20
2018-09-01T18:19:09.254Z,93.30
2018-09-01T18:21:38.388Z,93.30
2018-09-01T18:24:07.550Z,93.20
2018-09-01T18:26:36.654Z,93.20
2018-09-01T18:29:05.779Z,93.20
2018-09-01T18:31:34.861Z,93.00
2018-09-01T18:34:03.959Z,92.90
2018-09-01T18:36:33.152Z,92.90
2018-09-01T18:39:02.320Z,93.00
2018-09-01T18:41:31.472Z,93.00
2018-09-01T18:44:00.731Z,93.30
2018-09-01T18:46:30.137Z,93.20
2018-09-01T18:48:59.248Z,93.30
2018-09-01T18:51:28.428Z,93.50
2018-09-01T18:53:57.720Z,93.30
2018-09-01T18:56:27.324Z,93.30
2018-09-01T18:58:56.342Z,93.40
2018-09-01T19:01:25.529Z,93.60
2018-09-01T19:03:54.666Z,94.10
2018-09-01T19:06:23.729Z,94.00
2018-09-01T19:08:52.929Z,94.20
2018-09-01T19:11:22.044Z,94.20
2018-09-01T19:13:51.593Z,94.10
2018-09-01T19:16:20.641Z,94.20
2018-09-01T19:18:49.867Z,93.70
2018-09-01T19:21:19.295Z,93.90
2018-09-01T19:23:48.430Z,93.50
2018-09-01T19:26:17.888Z,93.40
2018-09-01T19:28:47.357Z,93.30
2018-09-01T19:31:16.893Z,93.30
2018-09-01T19:33:45.980Z,93.20
2018-09-01T19:36:15.101Z,93.10
2018-09-01T19:38:44.403Z,93.20
2018-09-01T19:41:13.495Z,93.40
2018-09-01T19:43:42.701Z,93.40
2018-09-01T19:46:12.047Z,93.50
2018-09-01T19:48:40.992Z,93.40
2018-09-01T19:51:10.027Z,93.10
2018-09-01T19:53:38.883Z,93.50
2018-09-01T19:56:07.907Z,93.40
2018-09-01T19:58:37.247Z,93.10
2018-09-01T20:01:06.473Z,93.10
2018-09-01T20:03:35.670Z,93.00
2018-09-01T20:06:04.649Z,93.00
2018-09-01T20:08:33.933Z,93.10
2018-09-01T20:11:03.583Z,93.60
2018-09-01T20:13:32.770Z,93.50
2018-09-01T20:16:01.868Z,93.90
2018-09-01T20:18:30.963Z,93.90
2018-09-01T20:21:00.075Z,93.90
2018-09-01T20:23:29.012Z,94.00
2018-09-01T20:25:58.121Z,93.90
2018-09-01T20:28:27.287Z,93.60
2018-09-01T20:30:56.452Z,93.30
2018-09-01T20:33:25.430Z,93.60
2018-09-01T20:35:55.851Z,93.80
2018-09-01T20:38:25.805Z,93.90
2018-09-01T20:40:54.964Z,93.70
2018-09-01T20:43:24.609Z,93.70
2018-09-01T20:45:53.776Z,93.70
2018-09-01T20:48:22.749Z,93.80
2018-09-01T20:50:51.748Z,93.80
2018-09-01T20:53:20.858Z,93.80
2018-09-01T20:55:49.841Z,93.70
2018-09-01T20:58:18.941Z,93.80
2018-09-01T21:00:47.948Z,93.80
2018-09-01T21:03:17.572Z,93.50
2018-09-01T21:05:46.613Z,93.80
2018-09-01T21:08:15.715Z,93.80
2018-09-01T21:10:44.840Z,93.90
2018-09-01T21:13:13.900Z,93.00
2018-09-01T21:15:43.010Z,93.10
2018-09-01T21:18:12.090Z,93.40
2018-09-01T21:20:41.184Z,93.60
2018-09-01T21:23:10.410Z,93.80
2018-09-01T21:25:39.612Z,93.80
2018-09-01T21:28:08.845Z,93.70
2018-09-01T21:30:37.755Z,93.40
2018-09-01T21:33:06.974Z,93.50
2018-09-01T21:35:35.992Z,93.80
2018-09-01T21:38:05.072Z,93.80
2018-09-01T21:40:34.160Z,93.50
2018-09-01T21:43:03.234Z,94.00
2018-09-01T21:45:32.436Z,93.70
2018-09-01T21:48:01.643Z,93.70
2018-09-01T21:50:30.739Z,93.30
2018-09-01T21:52:59.941Z,93.50
2018-09-01T21:55:29.031Z,93.00
2018-09-01T21:57:58.228Z,93.60
2018-09-01T22:00:27.336Z,93.20
2018-09-01T22:02:56.423Z,93.90
2018-09-01T22:05:25.615Z,93.50
2018-09-01T22:07:54.839Z,93.70
2018-09-01T22:10:24.030Z,94.20
2018-09-01T22:12:53.215Z,93.90
2018-09-01T22:15:22.411Z,94.10
2018-09-01T22:17:51.596Z,94.10
2018-09-01T22:20:20.783Z,94.10
2018-09-01T22:22:50.019Z,94.40
2018-09-01T22:25:19.229Z,94.10
2018-09-01T22:27:48.390Z,94.30
2018-09-01T22:30:17.405Z,94.10
2018-09-01T22:32:46.479Z,94.10
2018-09-01T22:35:15.579Z,93.80
2018-09-01T22:37:44.793Z,94.40
2018-09-01T22:40:13.839Z,94.00
2018-09-01T22:42:42.952Z,94.40
2018-09-01T22:45:12.153Z,94.30
2018-09-01T22:47:41.329Z,94.40
2018-09-01T22:50:10.450Z,94.10
2018-09-01T22:52:39.547Z,94.60
2018-09-01T22:55:08.744Z,94.30
2018-09-01T22:57:37.897Z,94.70
2018-09-01T23:00:07.041Z,94.10
2018-09-01T23:02:35.996Z,93.90
2018-09-01T23:05:04.979Z,94.30
2018-09-01T23:07:34.144Z,94.60
2018-09-01T23:10:03.206Z,94.50
2018-09-01T23:12:32.199Z,94.30
2018-09-01T23:15:01.303Z,93.90
2018-09-01T23:17:30.271Z,93.60
2018-09-01T23:19:59.264Z,93.90
2018-09-01T23:22:28.373Z,94.40
2018-09-01T23:24:57.479Z,93.80
2018-09-01T23:27:26.462Z,94.20
2018-09-01T23:29:55.553Z,94.20
2018-09-01T23:32:24.743Z,94.50
2018-09-01T23:34:53.744Z,94.30
2018-09-01T23:37:22.755Z,94.50
2018-09-01T23:39:51.834Z,94.80
2018-09-01T23:42:20.820Z,94.80
2018-09-01T23:44:49.840Z,94.60
2018-09-01T23:47:18.809Z,94.80
2018-09-01T23:49:47.888Z,94.60
2018-09-01T23:52:16.977Z,94.90
2018-09-01T23:54:46.093Z,94.30
2018-09-01T23:57:15.199Z,95.00
2018-09-01T23:59:44.275Z,94.90
